createdAt,value
2017-10-26T00:01:07.723Z,101987.31
2017-10-26T00:03:35.344Z,101989.08
2017-10-26T00:06:02.975Z,101987.44
2017-10-26T00:08:30.611Z,101985.42
2017-10-26T00:10:58.207Z,101987.41
2017-10-26T00:13:25.863Z,101983.09
2017-10-26T00:15:53.475Z,101983.16
2017-10-26T00:18:22.818Z,101983.94
2017-10-26T00:20:51.169Z,101981.27
2017-10-26T00:23:27.052Z,101978.67
2017-10-26T00:26:00.980Z,101977.41
2017-10-26T00:28:30.089Z,101980.39
2017-10-26T00:30:58.136Z,101982.77
2017-10-26T00:33:30.300Z,101986.70
2017-10-26T00:35:58.313Z,101985.56
2017-10-26T00:38:26.581Z,101983.13
2017-10-26T00:40:54.662Z,101985.64
2017-10-26T00:43:23.019Z,101991.00
2017-10-26T00:45:51.010Z,101990.58
2017-10-26T00:48:19.502Z,101986.41
2017-10-26T00:50:48.435Z,101986.31
2017-10-26T00:53:17.224Z,101991.63
2017-10-26T00:55:45.002Z,101992.69
2017-10-26T00:58:12.700Z,101988.67
2017-10-26T01:00:40.432Z,101995.86
2017-10-26T01:03:09.225Z,101993.68
2017-10-26T01:05:37.508Z,101996.42
2017-10-26T01:08:08.366Z,102003.07
2017-10-26T01:10:36.428Z,101998.06
2017-10-26T01:13:11.929Z,101999.19
2017-10-26T01:15:39.809Z,102004.03
2017-10-26T01:18:07.446Z,102004.61
2017-10-26T01:20:35.044Z,101994.21
2017-10-26T01:23:02.663Z,101996.55
2017-10-26T01:25:30.275Z,101994.69
2017-10-26T01:27:58.083Z,101994.91
2017-10-26T01:30:25.882Z,101992.87
2017-10-26T01:32:54.535Z,101990.20
2017-10-26T01:38:01.243Z,101985.89
2017-10-26T01:40:29.440Z,101991.06
2017-10-26T01:42:57.547Z,101986.66
2017-10-26T01:45:25.395Z,101985.72
2017-10-26T01:47:55.330Z,101986.81
2017-10-26T01:50:24.224Z,101988.67
2017-10-26T01:52:52.012Z,101991.24
2017-10-26T01:55:19.852Z,101990.86
2017-10-26T01:57:47.463Z,101985.98
2017-10-26T02:00:15.078Z,101980.64
2017-10-26T02:02:42.687Z,101979.45
2017-10-26T02:05:10.351Z,101979.97
2017-10-26T02:07:37.947Z,101979.43
2017-10-26T02:10:05.647Z,101979.01
2017-10-26T02:12:33.251Z,101976.91
2017-10-26T02:15:00.899Z,101974.05
2017-10-26T02:17:28.483Z,101974.11
2017-10-26T02:19:56.097Z,101972.37
2017-10-26T02:22:23.672Z,101974.81
2017-10-26T02:24:51.395Z,101972.53
2017-10-26T02:27:19.061Z,101969.44
2017-10-26T02:29:58.401Z,101969.16
2017-10-26T02:32:26.093Z,101969.98
2017-10-26T02:34:54.391Z,101962.41
2017-10-26T02:37:22.213Z,101964.31
2017-10-26T02:39:49.970Z,101969.65
2017-10-26T02:42:17.834Z,101965.70
2017-10-26T02:44:45.675Z,101962.98
2017-10-26T02:47:13.399Z,101965.27
2017-10-26T02:49:41.042Z,101968.92
2017-10-26T02:52:08.683Z,101972.91
2017-10-26T02:54:36.338Z,101970.34
2017-10-26T02:57:05.013Z,101971.72
2017-10-26T02:59:32.764Z,101971.30
2017-10-26T03:02:00.483Z,101964.69
2017-10-26T03:04:28.381Z,101966.68
2017-10-26T03:06:56.196Z,101960.20
2017-10-26T03:09:23.963Z,101971.76
2017-10-26T03:11:51.669Z,101970.51
2017-10-26T03:14:19.489Z,101968.94
2017-10-26T03:16:47.197Z,101971.63
2017-10-26T03:19:15.032Z,101979.74
2017-10-26T03:21:42.803Z,101969.80
2017-10-26T03:24:10.491Z,101973.19
2017-10-26T03:26:38.281Z,101972.86
2017-10-26T03:29:05.995Z,101967.57
2017-10-26T03:31:33.885Z,101965.49
2017-10-26T03:34:01.696Z,101966.56
2017-10-26T03:36:29.606Z,101976.57
2017-10-26T03:38:57.489Z,101967.02
2017-10-26T03:41:25.515Z,101970.80
2017-10-26T03:43:53.158Z,101962.90
2017-10-26T03:46:20.764Z,101961.99
2017-10-26T03:48:48.396Z,101964.62
2017-10-26T03:51:16.042Z,101970.06
2017-10-26T03:53:43.759Z,101966.59
2017-10-26T03:56:11.416Z,101961.87
2017-10-26T03:58:39.103Z,101953.69
2017-10-26T04:01:06.777Z,101955.81
2017-10-26T04:03:34.411Z,101949.22
2017-10-26T04:06:02.019Z,101950.41
2017-10-26T04:08:29.610Z,101942.92
2017-10-26T04:10:57.251Z,101942.06
2017-10-26T04:13:24.846Z,101949.45
2017-10-26T04:15:52.514Z,101941.47
2017-10-26T04:18:20.119Z,101935.37
2017-10-26T04:20:47.772Z,101943.45
2017-10-26T04:23:15.375Z,101940.25
2017-10-26T04:25:43.019Z,101935.66
2017-10-26T04:28:10.636Z,101941.20
2017-10-26T04:30:38.267Z,101939.89
2017-10-26T04:33:05.848Z,101945.98
2017-10-26T04:35:33.488Z,101944.94
2017-10-26T04:38:01.075Z,101944.71
2017-10-26T04:40:28.735Z,101947.83
2017-10-26T04:42:56.335Z,101949.17
2017-10-26T04:45:23.970Z,101944.35
2017-10-26T04:47:51.574Z,101950.16
2017-10-26T04:50:19.207Z,101948.42
2017-10-26T04:52:46.819Z,101954.36
2017-10-26T04:55:14.455Z,101942.66
2017-10-26T04:57:42.054Z,101949.43
2017-10-26T05:00:09.702Z,101947.27
2017-10-26T05:02:37.307Z,101938.25
2017-10-26T05:05:04.941Z,101946.47
2017-10-26T05:07:32.531Z,101944.55
2017-10-26T05:10:00.162Z,101937.72
2017-10-26T05:12:27.762Z,101940.73
2017-10-26T05:14:55.403Z,101947.66
2017-10-26T05:17:23.006Z,101953.16
2017-10-26T05:19:50.613Z,101951.50
2017-10-26T05:22:19.792Z,101941.52
2017-10-26T05:24:47.428Z,101943.55
2017-10-26T05:27:15.339Z,101942.02
2017-10-26T05:29:43.002Z,101943.88
2017-10-26T05:32:10.683Z,101939.19
2017-10-26T05:34:38.442Z,101947.25
2017-10-26T05:37:06.223Z,101942.51
2017-10-26T05:39:34.055Z,101936.31
2017-10-26T05:42:01.712Z,101934.63
2017-10-26T05:44:29.331Z,101915.00
2017-10-26T05:46:57.050Z,101911.48
2017-10-26T05:49:24.844Z,101900.55
2017-10-26T05:51:52.583Z,101909.95
2017-10-26T05:54:20.197Z,101908.89
2017-10-26T05:56:47.824Z,101914.31
2017-10-26T05:59:15.535Z,101904.61
2017-10-26T06:01:43.160Z,101904.59
2017-10-26T06:04:10.764Z,101907.02
2017-10-26T06:06:38.446Z,101907.85
2017-10-26T06:09:06.169Z,101902.72
2017-10-26T06:11:34.015Z,101904.22
2017-10-26T06:14:01.682Z,101906.37
2017-10-26T06:16:29.371Z,101916.25
2017-10-26T06:18:57.057Z,101911.81
2017-10-26T06:21:25.008Z,101910.23
2017-10-26T06:23:52.734Z,101908.94
2017-10-26T06:26:20.445Z,101911.94
2017-10-26T06:28:48.100Z,101923.97
2017-10-26T06:31:15.867Z,101934.10
2017-10-26T06:33:43.649Z,101935.71
2017-10-26T06:36:11.524Z,101939.76
2017-10-26T06:38:39.191Z,101937.99
2017-10-26T06:41:07.030Z,101941.75
2017-10-26T06:43:34.671Z,101949.71
2017-10-26T06:46:02.417Z,101947.43
2017-10-26T06:48:30.014Z,101938.13
2017-10-26T06:50:57.636Z,101942.30
2017-10-26T06:53:25.251Z,101947.92
2017-10-26T06:55:52.890Z,101959.48
2017-10-26T06:58:20.495Z,101959.54
2017-10-26T07:00:48.349Z,101966.07
2017-10-26T07:03:15.959Z,101954.38
2017-10-26T07:05:43.696Z,101941.44
2017-10-26T07:08:11.331Z,101934.91
2017-10-26T07:10:38.956Z,101944.33
2017-10-26T07:13:06.588Z,101949.30
2017-10-26T07:15:34.216Z,101952.16
2017-10-26T07:18:01.807Z,101960.39
2017-10-26T07:20:29.574Z,101961.90
2017-10-26T07:22:57.175Z,101962.96
2017-10-26T07:25:24.791Z,101968.72
2017-10-26T07:27:52.431Z,101972.06
2017-10-26T07:30:20.163Z,101973.47
2017-10-26T07:32:47.790Z,101974.63
2017-10-26T07:35:15.403Z,101973.02
2017-10-26T07:37:43.046Z,101975.80
2017-10-26T07:40:10.652Z,101976.84
2017-10-26T07:42:38.295Z,101973.75
2017-10-26T07:45:05.914Z,101973.02
2017-10-26T07:47:33.531Z,101976.78
2017-10-26T07:50:01.149Z,101978.52
2017-10-26T07:52:28.793Z,101981.09
2017-10-26T07:54:56.511Z,101976.86
2017-10-26T07:57:24.139Z,101977.80
2017-10-26T07:59:51.738Z,101982.70
2017-10-26T08:02:19.372Z,101977.77
2017-10-26T08:04:46.971Z,101972.37
2017-10-26T08:07:14.630Z,101963.95
2017-10-26T08:09:42.243Z,101963.09
2017-10-26T08:12:09.886Z,101959.15
2017-10-26T08:14:37.487Z,101958.66
2017-10-26T08:17:05.143Z,101954.06
2017-10-26T08:19:32.818Z,101956.92
2017-10-26T08:22:00.462Z,101958.06
2017-10-26T08:24:28.070Z,101956.53
2017-10-26T08:26:55.833Z,101960.09
2017-10-26T08:29:23.671Z,101957.98
2017-10-26T08:31:51.355Z,101954.91
2017-10-26T08:34:19.196Z,101971.00
2017-10-26T08:36:46.891Z,101972.67
2017-10-26T08:39:14.535Z,101973.67
2017-10-26T08:41:42.322Z,101975.58
2017-10-26T08:44:09.995Z,101976.70
2017-10-26T08:46:37.777Z,101975.41
2017-10-26T08:49:05.470Z,101977.88
2017-10-26T08:51:33.107Z,101970.66
2017-10-26T08:54:00.784Z,101970.39
2017-10-26T08:56:28.459Z,101967.72
2017-10-26T08:58:56.141Z,101964.12
2017-10-26T09:01:23.771Z,101969.28
2017-10-26T09:03:51.467Z,101964.19
2017-10-26T09:06:19.099Z,101960.45
2017-10-26T09:08:46.714Z,101964.77
2017-10-26T09:11:14.309Z,101962.91
2017-10-26T09:13:41.957Z,101969.93
2017-10-26T09:16:09.543Z,101971.84
2017-10-26T09:18:37.167Z,101974.42
2017-10-26T09:21:04.771Z,101977.25
2017-10-26T09:23:32.429Z,101979.28
2017-10-26T09:26:00.011Z,101972.40
2017-10-26T09:28:27.773Z,101967.80
2017-10-26T09:30:55.362Z,101977.14
2017-10-26T09:33:28.375Z,101980.47
2017-10-26T09:35:55.983Z,101982.37
2017-10-26T09:38:23.644Z,101982.67
2017-10-26T09:40:51.233Z,101979.12
2017-10-26T09:43:20.072Z,101976.99
2017-10-26T09:45:48.010Z,101979.95
2017-10-26T09:48:15.938Z,101985.66
2017-10-26T09:50:43.615Z,101988.52
2017-10-26T09:53:11.231Z,101984.33
2017-10-26T09:55:38.939Z,101992.47
2017-10-26T09:58:06.610Z,102000.06
2017-10-26T10:00:35.394Z,101996.30
2017-10-26T10:03:03.030Z,101991.98
2017-10-26T10:05:30.762Z,101984.14
2017-10-26T10:07:58.358Z,101984.16
2017-10-26T10:10:26.035Z,101980.08
2017-10-26T10:12:53.697Z,101977.95
2017-10-26T10:15:21.459Z,101975.50
2017-10-26T10:17:49.219Z,101973.74
2017-10-26T10:20:16.905Z,101968.06
2017-10-26T10:22:44.501Z,101974.17
2017-10-26T10:25:12.141Z,101970.39
2017-10-26T10:27:39.792Z,101969.45
2017-10-26T10:30:07.418Z,101960.79
2017-10-26T10:32:35.016Z,101956.59
2017-10-26T10:35:02.654Z,101959.58
2017-10-26T10:37:30.230Z,101948.61
2017-10-26T10:39:58.013Z,101953.89
2017-10-26T10:42:25.631Z,101956.98
2017-10-26T10:44:53.223Z,101948.30
2017-10-26T10:47:20.854Z,101937.71
2017-10-26T10:49:48.481Z,101941.77
2017-10-26T10:52:16.109Z,101936.88
2017-10-26T10:54:43.739Z,101930.23
2017-10-26T10:57:11.370Z,101921.31
2017-10-26T10:59:44.427Z,101918.09
2017-10-26T11:02:12.056Z,101933.23
2017-10-26T11:04:39.660Z,101929.30
2017-10-26T11:07:07.312Z,101930.80
2017-10-26T11:09:34.931Z,101928.78
2017-10-26T11:12:02.650Z,101930.81
2017-10-26T11:14:30.416Z,101923.38
2017-10-26T11:16:58.340Z,101916.75
2017-10-26T11:19:26.470Z,101924.59
2017-10-26T11:21:54.191Z,101920.95
2017-10-26T11:24:21.964Z,101927.58
2017-10-26T11:26:49.676Z,101920.02
2017-10-26T11:29:17.706Z,101922.45
2017-10-26T11:31:45.566Z,101918.39
2017-10-26T11:34:13.780Z,101915.44
2017-10-26T11:36:41.563Z,101923.42
2017-10-26T11:39:09.323Z,101922.73
2017-10-26T11:41:37.021Z,101917.86
2017-10-26T11:44:04.840Z,101921.51
2017-10-26T11:46:32.419Z,101928.55
2017-10-26T11:49:00.030Z,101935.33
2017-10-26T11:51:27.634Z,101930.98
2017-10-26T11:53:55.227Z,101937.06
2017-10-26T11:56:22.813Z,101940.98
2017-10-26T11:58:50.454Z,101936.27
2017-10-26T12:01:18.053Z,101940.98
2017-10-26T12:03:45.680Z,101939.66
2017-10-26T12:06:13.268Z,101926.92
2017-10-26T12:08:40.947Z,101895.50
2017-10-26T12:11:08.578Z,101894.14
2017-10-26T12:13:36.307Z,101904.80
2017-10-26T12:16:04.172Z,101901.84
2017-10-26T12:18:32.731Z,101900.44
2017-10-26T12:21:00.450Z,101901.55
2017-10-26T12:23:28.060Z,101894.59
2017-10-26T12:25:55.709Z,101888.22
2017-10-26T12:28:23.346Z,101902.00
2017-10-26T12:30:50.967Z,101889.17
2017-10-26T12:33:18.591Z,101875.49
2017-10-26T12:35:46.199Z,101878.48
2017-10-26T12:38:13.787Z,101885.44
2017-10-26T12:40:41.534Z,101878.11
2017-10-26T12:43:09.138Z,101875.83
2017-10-26T12:45:36.756Z,101863.06
2017-10-26T12:48:04.380Z,101857.19
2017-10-26T12:50:32.012Z,101863.91
2017-10-26T12:52:59.616Z,101856.83
2017-10-26T12:55:27.419Z,101864.42
2017-10-26T12:57:54.998Z,101868.31
2017-10-26T13:00:22.626Z,101862.44
2017-10-26T13:02:50.262Z,101860.34
2017-10-26T13:05:17.924Z,101847.78
2017-10-26T13:07:45.567Z,101848.08
2017-10-26T13:10:13.175Z,101844.33
2017-10-26T13:12:40.810Z,101847.95
2017-10-26T13:15:08.428Z,101834.26
2017-10-26T13:17:36.055Z,101834.55
2017-10-26T13:20:03.867Z,101830.20
2017-10-26T13:22:31.478Z,101842.38
2017-10-26T13:24:59.063Z,101851.54
2017-10-26T13:27:26.670Z,101851.11
2017-10-26T13:29:54.287Z,101853.20
2017-10-26T13:32:21.906Z,101853.89
2017-10-26T13:34:49.509Z,101855.97
2017-10-26T13:37:17.154Z,101858.53
2017-10-26T13:39:44.763Z,101849.92
2017-10-26T13:42:12.398Z,101848.56
2017-10-26T13:44:39.995Z,101845.95
2017-10-26T13:47:07.696Z,101831.83
2017-10-26T13:49:35.316Z,101826.27
2017-10-26T13:52:02.941Z,101834.75
2017-10-26T13:54:30.536Z,101830.95
2017-10-26T13:56:58.162Z,101833.19
2017-10-26T13:59:25.776Z,101826.36
2017-10-26T14:01:53.402Z,101832.30
2017-10-26T14:04:21.005Z,101842.55
2017-10-26T14:06:48.634Z,101846.78
2017-10-26T14:09:16.283Z,101847.01
2017-10-26T14:11:43.877Z,101841.59
2017-10-26T14:14:11.578Z,101838.78
2017-10-26T14:16:39.194Z,101838.24
2017-10-26T14:19:06.810Z,101840.19
2017-10-26T14:21:34.407Z,101845.19
2017-10-26T14:24:02.038Z,101841.97
2017-10-26T14:26:29.635Z,101831.30
2017-10-26T14:28:57.294Z,101828.09
2017-10-26T14:31:24.900Z,101823.13
2017-10-26T14:33:52.541Z,101835.02
2017-10-26T14:36:20.133Z,101837.02
2017-10-26T14:38:47.807Z,101838.91
2017-10-26T14:41:15.430Z,101835.30
2017-10-26T14:43:43.147Z,101835.69
2017-10-26T14:46:10.735Z,101822.31
2017-10-26T14:48:38.413Z,101826.27
2017-10-26T14:51:06.040Z,101828.56
2017-10-26T14:53:33.666Z,101830.22
2017-10-26T14:56:01.265Z,101828.52
2017-10-26T14:58:28.899Z,101834.83
2017-10-26T15:00:56.512Z,101824.39
2017-10-26T15:03:24.191Z,101815.27
2017-10-26T15:05:51.778Z,101802.66
2017-10-26T15:08:19.427Z,101795.58
2017-10-26T15:10:47.086Z,101792.89
2017-10-26T15:13:14.887Z,101796.61
2017-10-26T15:15:42.526Z,101789.45
2017-10-26T15:18:10.259Z,101791.39
2017-10-26T15:20:37.942Z,101791.81
2017-10-26T15:23:05.599Z,101767.22
2017-10-26T15:25:33.270Z,101759.66
2017-10-26T15:28:00.936Z,101774.44
2017-10-26T15:30:28.642Z,101777.43
2017-10-26T15:32:56.336Z,101787.05
2017-10-26T15:35:25.287Z,101794.12
2017-10-26T15:37:52.979Z,101800.61
2017-10-26T15:40:20.769Z,101808.61
2017-10-26T15:42:48.374Z,101809.84
2017-10-26T15:45:16.050Z,101806.84
2017-10-26T15:47:43.654Z,101811.61
2017-10-26T15:50:11.284Z,101812.63
2017-10-26T15:52:38.879Z,101805.50
2017-10-26T15:55:06.512Z,101811.34
2017-10-26T15:57:34.146Z,101819.47
2017-10-26T16:00:01.863Z,101819.34
2017-10-26T16:02:29.518Z,101812.48
2017-10-26T16:04:57.308Z,101809.08
2017-10-26T16:07:24.906Z,101809.50
2017-10-26T16:09:52.555Z,101809.09
2017-10-26T16:12:20.170Z,101807.84
2017-10-26T16:14:47.799Z,101808.41
2017-10-26T16:17:15.408Z,101818.46
2017-10-26T16:19:43.315Z,101821.96
2017-10-26T16:22:10.923Z,101820.36
2017-10-26T16:24:38.559Z,101814.02
2017-10-26T16:27:06.295Z,101809.81
2017-10-26T16:29:33.911Z,101802.78
2017-10-26T16:32:01.558Z,101801.17
2017-10-26T16:34:29.176Z,101798.33
2017-10-26T16:36:56.815Z,101796.84
2017-10-26T16:39:24.439Z,101793.47
2017-10-26T16:41:52.147Z,101789.94
2017-10-26T16:44:19.929Z,101800.77
2017-10-26T16:46:47.584Z,101796.56
2017-10-26T16:49:15.190Z,101796.84
2017-10-26T16:51:42.843Z,101805.64
2017-10-26T16:54:10.483Z,101802.66
2017-10-26T16:56:38.164Z,101805.91
2017-10-26T16:59:05.918Z,101804.83
2017-10-26T17:01:33.559Z,101803.06
2017-10-26T17:04:01.162Z,101792.64
2017-10-26T17:06:28.845Z,101793.88
2017-10-26T17:08:56.458Z,101794.27
2017-10-26T17:11:24.116Z,101794.68
2017-10-26T17:13:51.731Z,101797.11
2017-10-26T17:16:19.518Z,101800.48
2017-10-26T17:18:47.242Z,101793.86
2017-10-26T17:21:14.907Z,101787.80
2017-10-26T17:23:42.702Z,101786.03
2017-10-26T17:26:10.307Z,101780.06
2017-10-26T17:28:38.126Z,101790.61
2017-10-26T17:31:05.925Z,101796.71
2017-10-26T17:33:33.907Z,101792.24
2017-10-26T17:36:01.641Z,101790.89
2017-10-26T17:38:29.389Z,101784.92
2017-10-26T17:40:57.173Z,101768.70
2017-10-26T17:43:24.918Z,101768.14
2017-10-26T17:45:52.739Z,101767.20
2017-10-26T17:48:20.597Z,101764.64
2017-10-26T17:50:48.218Z,101774.13
2017-10-26T17:53:15.879Z,101772.64
2017-10-26T17:55:43.477Z,101773.03
2017-10-26T17:58:11.200Z,101769.25
2017-10-26T18:00:38.805Z,101761.80
2017-10-26T18:03:06.484Z,101775.59
2017-10-26T18:05:34.099Z,101783.70
2017-10-26T18:08:03.483Z,101778.44
2017-10-26T18:10:31.115Z,101777.64
2017-10-26T18:12:58.763Z,101774.52
2017-10-26T18:15:26.375Z,101778.99
2017-10-26T18:17:54.026Z,101778.03
2017-10-26T18:20:21.647Z,101774.25
2017-10-26T18:22:49.285Z,101777.78
2017-10-26T18:25:16.907Z,101781.14
2017-10-26T18:27:44.546Z,101779.80
2017-10-26T18:30:12.162Z,101789.26
2017-10-26T18:32:39.819Z,101781.53
2017-10-26T18:35:07.437Z,101781.00
2017-10-26T18:37:35.093Z,101784.39
2017-10-26T18:40:02.745Z,101778.19
2017-10-26T18:42:30.446Z,101774.27
2017-10-26T18:45:01.378Z,101778.47
2017-10-26T18:47:30.043Z,101779.13
2017-10-26T18:49:57.775Z,101767.09
2017-10-26T18:52:25.623Z,101773.47
2017-10-26T18:54:53.423Z,101765.87
2017-10-26T18:57:21.074Z,101757.62
2017-10-26T18:59:48.668Z,101758.31
2017-10-26T19:02:16.277Z,101766.69
2017-10-26T19:04:43.971Z,101762.52
2017-10-26T19:07:11.591Z,101774.80
2017-10-26T19:09:39.227Z,101771.25
2017-10-26T19:12:06.876Z,101779.77
2017-10-26T19:14:34.542Z,101775.42
2017-10-26T19:17:02.166Z,101767.86
2017-10-26T19:19:29.809Z,101763.64
2017-10-26T19:21:57.403Z,101766.22
2017-10-26T19:24:25.095Z,101765.15
2017-10-26T19:26:52.771Z,101761.74
2017-10-26T19:29:20.506Z,101765.27
2017-10-26T19:31:48.211Z,101751.50
2017-10-26T19:34:15.828Z,101754.75
2017-10-26T19:36:43.559Z,101768.13
2017-10-26T19:39:11.264Z,101767.20
2017-10-26T19:41:38.924Z,101773.67
2017-10-26T19:44:06.587Z,101770.28
2017-10-26T19:46:34.356Z,101770.98
2017-10-26T19:49:02.078Z,101770.83
2017-10-26T19:51:29.839Z,101768.67
2017-10-26T19:53:57.503Z,101765.30
2017-10-26T19:56:25.149Z,101760.55
2017-10-26T19:58:52.886Z,101759.77
2017-10-26T20:01:20.587Z,101762.98
2017-10-26T20:03:48.211Z,101767.87
2017-10-26T20:06:15.869Z,101760.84
2017-10-26T20:08:43.527Z,101774.08
2017-10-26T20:11:11.163Z,101768.27
2017-10-26T20:13:38.792Z,101771.70
2017-10-26T20:16:06.518Z,101769.94
2017-10-26T20:18:34.179Z,101771.24
2017-10-26T20:21:01.893Z,101773.53
2017-10-26T20:23:29.547Z,101758.95
2017-10-26T20:25:57.247Z,101757.34
2017-10-26T20:28:27.420Z,101763.40
2017-10-26T20:30:55.293Z,101771.64
2017-10-26T20:33:23.042Z,101769.22
2017-10-26T20:35:50.847Z,101776.36
2017-10-26T20:38:21.936Z,101765.83
2017-10-26T20:40:49.635Z,101760.98
2017-10-26T20:43:17.359Z,101770.86
2017-10-26T20:45:44.975Z,101771.78
2017-10-26T20:48:12.616Z,101764.08
2017-10-26T20:50:45.750Z,101747.86
2017-10-26T20:53:18.811Z,101745.70
2017-10-26T20:55:51.988Z,101747.31
2017-10-26T20:58:25.123Z,101753.11
2017-10-26T21:00:58.406Z,101749.19
2017-10-26T21:03:31.554Z,101756.07
2017-10-26T21:06:04.757Z,101757.31
2017-10-26T21:08:37.984Z,101746.09
2017-10-26T21:11:11.126Z,101755.28
2017-10-26T21:13:44.217Z,101761.89
2017-10-26T21:16:11.827Z,101755.27
2017-10-26T21:18:39.471Z,101757.03
2017-10-26T21:21:07.095Z,101752.43
2017-10-26T21:23:34.758Z,101749.99
2017-10-26T21:26:02.442Z,101753.11
2017-10-26T21:28:30.083Z,101762.27
2017-10-26T21:30:57.683Z,101759.56
2017-10-26T21:33:25.319Z,101759.03
2017-10-26T21:35:52.941Z,101765.23
2017-10-26T21:38:20.605Z,101758.61
2017-10-26T21:40:48.243Z,101763.07
2017-10-26T21:43:15.864Z,101754.83
2017-10-26T21:45:43.517Z,101755.75
2017-10-26T21:48:11.147Z,101746.72
2017-10-26T21:50:38.747Z,101754.70
2017-10-26T21:53:06.396Z,101758.67
2017-10-26T21:55:34.015Z,101757.70
2017-10-26T21:58:01.655Z,101754.30
2017-10-26T22:00:29.276Z,101748.04
2017-10-26T22:02:56.924Z,101748.16
2017-10-26T22:05:24.532Z,101742.47
2017-10-26T22:07:52.295Z,101739.15
2017-10-26T22:10:19.930Z,101730.66
2017-10-26T22:12:47.542Z,101732.00
2017-10-26T22:15:15.258Z,101740.52
2017-10-26T22:17:42.858Z,101732.02
2017-10-26T22:20:10.498Z,101739.19
2017-10-26T22:22:38.170Z,101727.98
2017-10-26T22:25:05.809Z,101728.94
2017-10-26T22:27:33.447Z,101735.41
2017-10-26T22:30:01.101Z,101740.00
2017-10-26T22:32:28.704Z,101739.59
2017-10-26T22:34:56.348Z,101729.33
2017-10-26T22:37:23.951Z,101737.19
2017-10-26T22:39:51.610Z,101737.30
2017-10-26T22:42:19.227Z,101735.53
2017-10-26T22:44:46.971Z,101738.49
2017-10-26T22:47:14.588Z,101733.48
2017-10-26T22:49:42.245Z,101732.38
2017-10-26T22:52:09.880Z,101746.52
2017-10-26T22:54:37.549Z,101744.15
2017-10-26T22:57:05.155Z,101734.59
2017-10-26T22:59:32.838Z,101742.39
2017-10-26T23:02:00.452Z,101749.34
2017-10-26T23:04:28.110Z,101749.49
2017-10-26T23:06:55.709Z,101736.31
2017-10-26T23:09:23.367Z,101720.27
2017-10-26T23:11:50.972Z,101723.67
2017-10-26T23:14:18.611Z,101723.30
2017-10-26T23:16:46.219Z,101735.31
2017-10-26T23:19:13.895Z,101734.51
2017-10-26T23:21:41.593Z,101723.03
2017-10-26T23:24:09.247Z,101709.56
2017-10-26T23:26:36.847Z,101703.59
2017-10-26T23:29:04.479Z,101702.81
2017-10-26T23:31:32.148Z,101704.17
2017-10-26T23:33:59.798Z,101704.03
2017-10-26T23:36:27.395Z,101713.20
2017-10-26T23:38:55.023Z,101715.16
2017-10-26T23:41:22.640Z,101712.04
2017-10-26T23:43:50.274Z,101713.62
2017-10-26T23:46:17.887Z,101714.80
2017-10-26T23:48:45.479Z,101724.47
2017-10-26T23:51:13.092Z,101725.78
2017-10-26T23:53:40.734Z,101724.85
2017-10-26T23:56:08.351Z,101727.27
2017-10-26T23:58:35.983Z,101737.80
